Time;durP1;ratioP1;P1;durP2;ratioP2;P2;SDS_P1;SDS_P2;PMS_P1;PMS_P2;Temp;Humidity;BMP_temperature;BMP_pressure;BME280_temperature;BME280_humidity;BME280_pressure;Samples;Min_cycle;Max_cycle;Signal;HPM_P1;HPM_P2
2022/06/14 00:02:51;;;;;;;1.97;1.63;;;15.70;99.90;;;;;;5013760;28;20582;-73
2022/06/14 00:05:17;;;;;;;1.43;1.33;;;15.50;99.90;;;;;;5013851;28;20394;-69
2022/06/14 00:07:42;;;;;;;3.17;1.77;;;15.50;99.90;;;;;;5013219;28;20188;-70
2022/06/14 00:10:08;;;;;;;3.40;1.40;;;15.50;99.90;;;;;;5013837;28;20166;-70
2022/06/14 00:12:34;;;;;;;2.37;1.37;;;15.60;99.90;;;;;;5014042;28;20224;-70
2022/06/14 00:15:00;;;;;;;2.50;1.67;;;15.50;99.90;;;;;;5014533;28;20158;-70
2022/06/14 00:17:25;;;;;;;1.33;1.07;;;15.50;99.90;;;;;;5013867;28;20283;-71
2022/06/14 00:19:51;;;;;;;3.10;1.50;;;15.50;99.90;;;;;;5013598;28;20634;-70
2022/06/14 00:22:16;;;;;;;1.93;1.60;;;15.40;99.90;;;;;;5014074;28;20180;-72
2022/06/14 00:24:42;;;;;;;4.80;1.30;;;15.30;99.90;;;;;;5013517;28;20169;-69
2022/06/14 00:27:07;;;;;;;1.30;1.20;;;15.20;99.90;;;;;;5014125;28;20169;-70
2022/06/14 00:29:33;;;;;;;1.67;1.47;;;15.20;99.90;;;;;;5013805;28;20173;-70
2022/06/14 00:31:58;;;;;;;3.20;1.60;;;15.20;99.90;;;;;;5013350;28;20488;-71
2022/06/14 00:34:24;;;;;;;1.40;1.30;;;15.20;99.90;;;;;;5013973;28;20165;-70
2022/06/14 00:36:53;;;;;;;4.33;1.60;;;15.20;99.90;;;;;;5013469;28;20284;-69
2022/06/14 00:39:18;;;;;;;2.97;1.13;;;15.10;99.90;;;;;;5013590;28;20256;-70
2022/06/14 00:41:47;;;;;;;1.10;1.00;;;15.00;99.90;;;;;;5014343;28;20244;-71
2022/06/14 00:44:16;;;;;;;5.00;1.50;;;15.00;99.90;;;;;;5016589;28;20184;-69
2022/06/14 00:46:55;;;;;;;2.40;1.30;;;15.00;99.90;;;;;;5017861;28;20229;-69
2022/06/14 00:49:39;;;;;;;5.27;1.63;;;15.00;99.90;;;;;;5018005;28;20583;-69
2022/06/14 00:52:24;;;;;;;7.07;1.33;;;15.00;99.90;;;;;;5019276;28;20162;-68
2022/06/14 00:54:56;;;;;;;2.47;1.27;;;14.90;99.90;;;;;;5019950;28;20186;-70
2022/06/14 00:57:31;;;;;;;1.67;1.17;;;14.90;99.90;;;;;;5020333;28;20217;-70
2022/06/14 01:00:03;;;;;;;1.27;1.10;;;14.90;99.90;;;;;;5019241;28;20621;-71
2022/06/14 01:02:34;;;;;;;1.40;1.30;;;14.90;99.90;;;;;;5019111;28;20205;-70
2022/06/14 01:05:03;;;;;;;2.73;1.33;;;14.80;99.90;;;;;;5017844;28;20229;-70
2022/06/14 01:07:31;;;;;;;1.33;1.03;;;14.80;99.90;;;;;;5017734;28;20648;-72
2022/06/14 01:10:10;;;;;;;1.50;1.40;;;14.90;99.90;;;;;;5019835;28;20192;-70
2022/06/14 01:12:39;;;;;;;3.33;1.40;;;14.70;99.90;;;;;;5021055;28;20245;-70
2022/06/14 01:15:20;;;;;;;3.67;1.40;;;14.80;99.90;;;;;;5025276;28;20161;-69
2022/06/14 01:17:52;;;;;;;4.77;1.30;;;14.70;99.90;;;;;;5016792;28;20169;-69
2022/06/14 01:20:20;;;;;;;1.37;1.17;;;14.70;99.90;;;;;;5015670;28;20180;-70
2022/06/14 01:22:47;;;;;;;3.80;1.67;;;14.60;99.90;;;;;;5017223;28;20165;-70
2022/06/14 01:25:13;;;;;;;2.37;1.30;;;14.60;99.90;;;;;;5015242;28;20181;-70
2022/06/14 01:27:41;;;;;;;1.47;1.37;;;14.60;99.90;;;;;;5016663;28;20193;-70
2022/06/14 01:30:07;;;;;;;3.87;1.47;;;14.70;99.90;;;;;;5016712;28;20158;-70
2022/06/14 01:32:39;;;;;;;2.50;1.40;;;14.50;99.90;;;;;;5017126;28;20296;-70
2022/06/14 01:35:08;;;;;;;2.07;1.30;;;14.50;99.90;;;;;;5016671;28;20161;-69
2022/06/14 01:37:35;;;;;;;1.53;1.13;;;14.40;99.90;;;;;;5016528;28;20189;-71
2022/06/14 01:40:05;;;;;;;2.53;1.27;;;14.40;99.90;;;;;;5017473;28;20200;-71
2022/06/14 01:42:33;;;;;;;2.73;1.20;;;14.40;99.90;;;;;;5016712;28;20161;-70
2022/06/14 01:45:16;;;;;;;2.50;1.33;;;14.40;99.90;;;;;;5016682;28;20227;-70
2022/06/14 01:47:58;;;;;;;4.70;1.30;;;14.30;99.90;;;;;;5016784;28;20158;-70
2022/06/14 01:54:06;;;;;;;4.57;1.57;;;14.30;99.90;;;;;;5016124;28;20165;-70
2022/06/14 01:57:04;;;;;;;4.40;1.43;;;14.30;99.90;;;;;;5016534;28;20197;-68
2022/06/14 01:59:52;;;;;;;2.07;1.13;;;14.30;99.90;;;;;;5016256;28;20201;-69
2022/06/14 02:02:29;;;;;;;2.57;1.37;;;14.20;99.90;;;;;;5016817;28;20673;-67
2022/06/14 02:05:10;;;;;;;3.03;1.40;;;14.10;99.90;;;;;;5016445;28;20295;-69
2022/06/14 02:07:47;;;;;;;2.37;1.13;;;14.20;99.90;;;;;;5014642;28;20287;-70
2022/06/14 02:10:26;;;;;;;2.40;1.20;;;14.20;99.90;;;;;;5015806;28;20161;-70
2022/06/14 02:13:26;;;;;;;2.70;1.20;;;14.20;99.90;;;;;;5016051;28;20220;-69
2022/06/14 02:16:07;;;;;;;3.73;1.47;;;14.20;99.90;;;;;;5015524;28;20551;-70
2022/06/14 02:18:47;;;;;;;3.00;1.10;;;14.10;99.90;;;;;;5016021;28;20232;-70
2022/06/14 02:21:23;;;;;;;1.67;1.50;;;14.20;99.90;;;;;;5015203;28;20177;-71
2022/06/14 02:23:54;;;;;;;2.70;1.33;;;14.20;99.90;;;;;;5015768;28;20226;-69
2022/06/14 02:26:27;;;;;;;4.10;1.20;;;14.20;99.90;;;;;;5014885;28;20173;-70
2022/06/14 02:29:06;;;;;;;2.43;1.17;;;14.10;99.90;;;;;;5015768;28;20162;-70
2022/06/14 02:31:39;;;;;;;2.77;1.33;;;14.10;99.90;;;;;;5015644;28;20561;-70
2022/06/14 02:34:33;;;;;;;2.83;1.50;;;14.10;99.90;;;;;;5015945;28;20518;-70
2022/06/14 02:37:38;;;;;;;3.50;1.30;;;14.10;99.90;;;;;;5029669;28;20318;-68
2022/06/14 02:40:16;;;;;;;3.23;1.00;;;14.00;99.90;;;;;;5015130;28;20306;-68
2022/06/14 02:42:50;;;;;;;1.93;1.10;;;14.00;99.90;;;;;;5015689;28;20180;-70
2022/06/14 02:45:19;;;;;;;2.17;1.37;;;14.00;99.90;;;;;;5015638;28;20162;-69
2022/06/14 02:47:50;;;;;;;1.87;1.03;;;14.00;99.90;;;;;;5013976;28;20293;-69
2022/06/14 02:50:24;;;;;;;2.80;1.17;;;13.90;99.90;;;;;;5015127;28;20173;-68
2022/06/14 02:53:01;;;;;;;2.37;1.57;;;13.90;99.90;;;;;;5014853;28;20165;-69
2022/06/14 02:55:43;;;;;;;4.23;1.53;;;13.80;99.90;;;;;;5015028;28;20169;-68
2022/06/14 02:58:26;;;;;;;2.50;1.30;;;13.70;99.90;;;;;;5014250;28;20185;-70
2022/06/14 03:00:58;;;;;;;1.40;1.13;;;13.80;99.90;;;;;;5014848;28;20628;-70
2022/06/14 03:03:38;;;;;;;3.17;1.10;;;13.90;99.90;;;;;;5014959;28;20166;-70
2022/06/14 03:06:34;;;;;;;2.27;1.20;;;13.70;99.90;;;;;;5015030;28;20170;-71
2022/06/14 03:09:05;;;;;;;1.53;1.20;;;13.70;99.90;;;;;;5013502;28;20275;-70
2022/06/14 03:11:47;;;;;;;2.33;1.13;;;13.70;99.90;;;;;;5014848;28;20240;-69
2022/06/14 03:14:22;;;;;;;2.70;1.73;;;13.70;99.90;;;;;;5014301;28;20166;-70
2022/06/14 03:16:54;;;;;;;1.97;1.10;;;13.70;99.90;;;;;;5015062;28;20302;-70
2022/06/14 03:19:42;;;;;;;1.37;1.20;;;13.80;99.90;;;;;;5014375;28;20158;-70
2022/06/14 03:22:15;;;;;;;3.40;1.33;;;13.80;99.90;;;;;;5014980;28;20169;-69
2022/06/14 03:24:54;;;;;;;3.17;1.40;;;13.80;99.90;;;;;;5015207;28;20161;-69
2022/06/14 03:27:19;;;;;;;1.97;1.10;;;13.70;99.90;;;;;;5015639;28;20161;-69
2022/06/14 03:29:50;;;;;;;4.23;1.50;;;13.70;99.90;;;;;;5015138;28;20248;-70
2022/06/14 03:32:26;;;;;;;3.50;1.10;;;13.70;99.90;;;;;;5014999;28;20632;-69
2022/06/14 03:34:58;;;;;;;2.37;1.40;;;13.60;99.90;;;;;;5021611;28;20230;-70
2022/06/14 03:37:25;;;;;;;1.23;1.00;;;13.50;99.90;;;;;;5019947;28;20212;-69
2022/06/14 03:39:58;;;;;;;2.80;1.60;;;13.70;99.90;;;;;;5019258;28;20270;-72
2022/06/14 03:42:24;;;;;;;2.43;1.53;;;13.80;99.90;;;;;;5016806;28;20248;-68
2022/06/14 03:44:50;;;;;;;3.63;1.30;;;13.60;99.90;;;;;;5015191;28;20251;-70
2022/06/14 03:47:20;;;;;;;2.67;1.40;;;13.70;99.90;;;;;;5014015;28;20311;-70
2022/06/14 03:49:58;;;;;;;1.40;1.23;;;13.70;99.90;;;;;;5014670;28;20166;-70
2022/06/14 03:52:49;;;;;;;1.33;1.03;;;13.80;99.90;;;;;;5014727;28;20162;-70
2022/06/14 03:55:52;;;;;;;2.10;1.23;;;13.80;99.90;;;;;;5014169;28;20667;-70
2022/06/14 03:58:23;;;;;;;1.50;1.30;;;13.70;99.90;;;;;;5014516;28;20336;-70
2022/06/14 04:00:51;;;;;;;3.60;1.27;;;13.80;99.90;;;;;;5013834;28;20169;-69
2022/06/14 04:03:47;;;;;;;1.77;1.33;;;13.80;99.90;;;;;;5013848;28;20174;-69
2022/06/14 04:06:37;;;;;;;3.97;1.50;;;13.70;99.90;;;;;;5009632;28;20645;-69
2022/06/14 04:09:15;;;;;;;3.77;1.50;;;13.70;99.90;;;;;;5013214;28;20179;-70
2022/06/14 04:12:01;;;;;;;5.50;1.30;;;13.70;99.90;;;;;;5014254;28;20547;-70
2022/06/14 04:14:40;;;;;;;5.73;1.57;;;13.70;99.90;;;;;;5014568;28;20162;-70
2022/06/14 04:17:38;;;;;;;2.13;1.63;;;13.80;99.90;;;;;;5014135;28;20193;-70
2022/06/14 04:20:15;;;;;;;3.53;1.40;;;13.90;99.90;;;;;;5014304;28;20198;-69
2022/06/14 04:22:46;;;;;;;2.13;1.00;;;13.90;99.90;;;;;;5012907;28;20179;-71
2022/06/14 04:25:38;;;;;;;4.30;1.40;;;13.80;99.90;;;;;;5014812;28;20162;-69
2022/06/14 04:28:15;;;;;;;6.20;1.83;;;13.70;99.90;;;;;;5015987;28;20257;-69
2022/06/14 04:31:16;;;;;;;1.80;1.27;;;13.70;99.90;;;;;;5014964;28;20550;-69
2022/06/14 04:33:47;;;;;;;5.10;1.50;;;13.80;99.90;;;;;;5009580;28;20204;-69
2022/06/14 04:36:30;;;;;;;2.53;1.43;;;13.90;99.90;;;;;;5013763;28;20205;-70
2022/06/14 04:39:04;;;;;;;3.43;1.40;;;14.00;99.90;;;;;;5013854;28;20501;-70
2022/06/14 04:42:03;;;;;;;2.07;1.30;;;13.90;99.90;;;;;;5012602;28;20177;-74
2022/06/14 04:44:53;;;;;;;4.53;1.60;;;14.00;99.90;;;;;;5013375;28;20221;-71
2022/06/14 04:47:29;;;;;;;4.73;1.37;;;14.20;99.90;;;;;;5014431;28;20170;-70
2022/06/14 04:50:19;;;;;;;4.53;1.40;;;14.20;99.90;;;;;;5018075;28;20455;-71
2022/06/14 04:52:53;;;;;;;2.63;1.17;;;14.20;99.90;;;;;;5032274;28;20694;-69
2022/06/14 04:55:23;;;;;;;2.30;1.20;;;14.40;99.90;;;;;;5038730;28;20493;-69
2022/06/14 04:58:22;;;;;;;4.37;1.50;;;14.40;99.90;;;;;;5040801;28;20161;-71
2022/06/14 05:00:57;;;;;;;4.43;1.60;;;14.30;99.90;;;;;;5046150;28;20199;-70
2022/06/14 05:03:26;;;;;;;3.33;1.40;;;14.30;99.90;;;;;;5043371;28;20171;-71
2022/06/14 05:06:01;;;;;;;1.83;1.13;;;14.30;99.90;;;;;;5047340;28;20184;-71
2022/06/14 05:08:36;;;;;;;4.70;1.37;;;14.20;99.90;;;;;;5043978;28;20530;-69
2022/06/14 05:11:17;;;;;;;3.47;1.50;;;14.30;99.90;;;;;;5037561;28;20258;-69
2022/06/14 05:14:11;;;;;;;8.13;3.80;;;14.30;99.90;;;;;;5037044;28;20518;-69
2022/06/14 05:17:03;;;;;;;4.13;1.50;;;14.40;99.90;;;;;;5036230;28;20307;-70
2022/06/14 05:19:34;;;;;;;7.23;1.80;;;14.50;99.90;;;;;;5037312;28;20539;-69
2022/06/14 05:22:22;;;;;;;1.83;1.10;;;14.70;99.90;;;;;;5037287;28;20165;-68
2022/06/14 05:24:49;;;;;;;3.50;1.20;;;14.60;99.90;;;;;;5036664;28;20252;-69
2022/06/14 05:27:37;;;;;;;2.47;1.40;;;14.70;99.90;;;;;;5036147;28;20181;-68
2022/06/14 05:30:28;;;;;;;5.90;1.50;;;14.70;99.90;;;;;;5036809;28;20153;-69
2022/06/14 05:33:21;;;;;;;3.53;1.17;;;14.70;99.90;;;;;;5036820;28;20157;-69
2022/06/14 05:35:57;;;;;;;1.90;1.20;;;14.80;99.90;;;;;;5037461;28;20236;-69
2022/06/14 05:38:47;;;;;;;1.73;1.40;;;14.80;99.90;;;;;;5036401;28;20184;-69
2022/06/14 05:41:40;;;;;;;1.90;1.50;;;14.80;99.90;;;;;;5037372;28;20521;-70
2022/06/14 05:44:30;;;;;;;1.90;1.40;;;14.80;99.90;;;;;;5037333;28;20165;-70
2022/06/14 05:46:58;;;;;;;3.10;1.20;;;14.90;99.90;;;;;;5036506;28;20252;-71
2022/06/14 05:49:29;;;;;;;5.33;1.57;;;15.00;99.90;;;;;;5036580;28;20214;-69
2022/06/14 05:52:14;;;;;;;3.33;1.30;;;15.00;99.90;;;;;;5036226;28;20172;-70
2022/06/14 05:55:00;;;;;;;3.50;1.43;;;14.90;99.90;;;;;;5035972;28;20165;-70
2022/06/14 05:57:34;;;;;;;7.43;1.40;;;15.00;99.90;;;;;;5036179;28;20223;-68
2022/06/14 06:00:11;;;;;;;7.53;1.63;;;14.90;99.90;;;;;;5036089;28;20585;-70
2022/06/14 06:02:59;;;;;;;8.20;1.20;;;14.90;99.90;;;;;;5036127;28;20179;-71
2022/06/14 06:05:28;;;;;;;2.00;1.20;;;14.80;99.90;;;;;;5036393;28;20263;-72
2022/06/14 06:08:17;;;;;;;2.70;1.30;;;14.90;99.90;;;;;;5035912;28;20169;-70
2022/06/14 06:10:47;;;;;;;5.03;1.43;;;15.00;99.90;;;;;;5035947;28;20180;-71
2022/06/14 06:13:20;;;;;;;3.73;1.70;;;15.00;99.90;;;;;;5035972;28;20165;-69
2022/06/14 06:15:50;;;;;;;5.43;1.10;;;15.10;99.90;;;;;;5036014;28;20204;-70
2022/06/14 06:18:31;;;;;;;3.60;1.37;;;15.20;99.90;;;;;;5035802;28;20171;-70
2022/06/14 06:21:04;;;;;;;8.50;1.80;;;15.30;99.90;;;;;;5036092;28;20169;-70
2022/06/14 06:23:36;;;;;;;1.73;1.13;;;15.40;99.90;;;;;;5035471;28;20160;-69
2022/06/14 06:26:02;;;;;;;6.13;1.70;;;15.60;99.90;;;;;;5035371;28;20161;-68
2022/06/14 06:28:31;;;;;;;6.27;1.47;;;15.50;99.90;;;;;;5035409;28;20646;-69
2022/06/14 06:31:03;;;;;;;4.13;1.30;;;15.30;99.90;;;;;;5035920;28;20161;-69
2022/06/14 06:33:33;;;;;;;2.80;1.57;;;15.40;99.90;;;;;;5035468;28;20180;-67
2022/06/14 06:36:08;;;;;;;4.37;1.43;;;15.40;99.90;;;;;;5035048;28;20243;-70
2022/06/14 06:39:03;;;;;;;5.57;1.13;;;15.40;99.90;;;;;;5034593;28;20274;-70
2022/06/14 06:41:50;;;;;;;5.50;1.60;;;15.50;99.90;;;;;;5033847;28;20176;-70
2022/06/14 06:44:36;;;;;;;3.70;1.50;;;15.70;99.90;;;;;;5034510;28;20207;-69
2022/06/14 06:47:19;;;;;;;9.47;1.50;;;15.70;99.90;;;;;;5034887;28;20267;-70
2022/06/14 06:50:06;;;;;;;1.77;1.17;;;15.60;99.90;;;;;;5040215;28;20223;-69
2022/06/14 06:52:42;;;;;;;3.50;1.17;;;15.80;99.90;;;;;;5037193;28;20203;-69
2022/06/14 06:55:13;;;;;;;2.20;1.40;;;15.60;99.90;;;;;;5037988;28;20529;-70
2022/06/14 06:57:42;;;;;;;3.63;1.47;;;15.90;99.90;;;;;;5035317;28;20207;-69
2022/06/14 07:00:12;;;;;;;2.03;1.10;;;15.90;99.90;;;;;;5035358;28;20179;-69
2022/06/14 07:02:56;;;;;;;1.63;1.10;;;15.90;99.90;;;;;;5035710;28;20507;-70
2022/06/14 07:05:22;;;;;;;3.47;1.40;;;15.90;99.90;;;;;;5035348;28;20228;-70
2022/06/14 07:08:17;;;;;;;7.17;1.57;;;16.00;99.90;;;;;;5035342;28;20240;-69
2022/06/14 07:10:50;;;;;;;4.60;1.30;;;16.20;99.90;;;;;;5033866;28;20499;-70
2022/06/14 07:13:24;;;;;;;4.57;1.47;;;16.20;99.90;;;;;;5034909;28;20161;-70
2022/06/14 07:16:10;;;;;;;3.80;1.30;;;16.30;99.90;;;;;;5035036;28;20204;-69
2022/06/14 07:18:58;;;;;;;8.83;1.47;;;16.50;99.90;;;;;;5034354;28;20240;-70
2022/06/14 07:21:33;;;;;;;6.07;1.60;;;16.50;99.90;;;;;;5036584;28;20192;-71
2022/06/14 07:24:10;;;;;;;4.07;1.60;;;16.40;99.90;;;;;;5037575;28;20191;-70
2022/06/14 07:26:42;;;;;;;4.60;1.40;;;16.50;99.90;;;;;;5037261;28;20152;-70
2022/06/14 07:29:32;;;;;;;4.20;1.37;;;16.60;99.90;;;;;;5035422;28;20613;-71
2022/06/14 07:32:21;;;;;;;1.87;1.30;;;16.70;99.90;;;;;;5036055;28;20184;-71
2022/06/14 07:34:48;;;;;;;3.83;1.57;;;16.60;99.90;;;;;;5034937;28;20157;-71
2022/06/14 07:37:31;;;;;;;4.33;1.43;;;16.80;99.90;;;;;;5034539;28;20209;-69
2022/06/14 07:40:03;;;;;;;6.97;1.53;;;17.10;99.90;;;;;;5036449;28;20244;-70
2022/06/14 07:42:41;;;;;;;4.10;1.33;;;17.00;99.90;;;;;;5037986;28;20219;-70
2022/06/14 07:45:20;;;;;;;4.60;1.30;;;16.70;99.90;;;;;;5036119;28;20192;-71
2022/06/14 07:48:16;;;;;;;4.17;1.50;;;16.50;99.90;;;;;;5035916;28;20255;-71
2022/06/14 07:50:50;;;;;;;2.40;1.20;;;16.60;99.90;;;;;;5032981;28;20240;-70
2022/06/14 07:53:42;;;;;;;3.93;1.07;;;16.80;99.90;;;;;;5033856;28;20174;-71
2022/06/14 07:56:17;;;;;;;2.73;1.17;;;16.90;99.90;;;;;;5033585;28;20224;-70
2022/06/14 07:58:55;;;;;;;2.80;1.57;;;16.70;99.90;;;;;;5034070;28;20188;-69
2022/06/14 08:01:35;;;;;;;7.53;1.53;;;16.90;99.90;;;;;;5034196;28;20186;-70
2022/06/14 08:04:29;;;;;;;6.40;1.63;;;17.10;99.90;;;;;;5033628;28;20224;-71
2022/06/14 08:07:02;;;;;;;1.33;1.00;;;17.10;99.90;;;;;;5031156;28;20193;-70
2022/06/14 08:09:40;;;;;;;4.17;1.70;;;17.20;99.90;;;;;;5032923;28;20555;-72
2022/06/14 08:12:15;;;;;;;8.53;1.60;;;17.20;99.90;;;;;;5034107;28;20175;-69
2022/06/14 08:15:08;;;;;;;2.77;1.30;;;17.50;99.90;;;;;;5033111;28;20214;-69
2022/06/14 08:17:59;;;;;;;6.07;1.27;;;17.80;99.60;;;;;;5032255;28;20640;-70
2022/06/14 08:20:48;;;;;;;7.67;1.30;;;17.60;98.30;;;;;;5033918;28;20613;-71
2022/06/14 08:23:37;;;;;;;4.40;1.00;;;17.70;98.90;;;;;;5033104;28;20467;-71
2022/06/14 08:26:39;;;;;;;3.97;1.00;;;17.60;98.90;;;;;;5033530;28;20188;-69
2022/06/14 08:29:14;;;;;;;2.65;1.33;;;17.90;98.40;;;;;;5029749;28;20196;-69
2022/06/14 08:31:49;;;;;;;5.63;1.38;;;18.10;99.50;;;;;;5033099;28;20164;-68
2022/06/14 08:34:25;;;;;;;4.20;1.30;;;18.20;98.20;;;;;;5033517;28;20168;-69
2022/06/14 08:37:28;;;;;;;2.55;1.25;;;18.00;98.90;;;;;;5033356;28;20200;-70
2022/06/14 08:40:10;;;;;;;1.95;1.30;;;18.30;99.10;;;;;;5031559;28;20199;-70
2022/06/14 08:43:03;;;;;;;4.70;1.45;;;18.50;97.50;;;;;;5033599;28;20193;-69
2022/06/14 08:45:39;;;;;;;5.05;1.55;;;18.40;96.50;;;;;;5033548;28;20628;-69
2022/06/14 08:48:33;;;;;;;5.85;1.42;;;18.40;96.20;;;;;;5033514;28;20161;-71
2022/06/14 08:51:31;;;;;;;4.30;1.23;;;18.00;98.00;;;;;;5038143;28;20165;-71
2022/06/14 08:54:25;;;;;;;3.42;1.30;;;17.50;99.30;;;;;;5037573;28;20161;-70
2022/06/14 08:56:53;;;;;;;1.50;1.20;;;18.00;99.10;;;;;;5040538;28;20686;-70
2022/06/14 08:59:19;;;;;;;4.60;1.83;;;17.70;99.50;;;;;;5033324;28;20176;-69
2022/06/14 09:02:19;;;;;;;2.57;1.40;;;17.60;99.90;;;;;;5033016;28;20188;-70
2022/06/14 09:05:05;;;;;;;1.73;1.20;;;18.00;99.90;;;;;;5033239;28;20228;-70
2022/06/14 09:07:54;;;;;;;2.67;1.55;;;18.40;98.80;;;;;;5033313;28;20169;-68
2022/06/14 09:10:55;;;;;;;2.72;1.63;;;18.30;97.80;;;;;;5033071;28;20197;-69
2022/06/14 09:13:49;;;;;;;4.38;1.70;;;18.60;97.70;;;;;;5033233;28;20624;-69
2022/06/14 09:16:21;;;;;;;3.90;1.65;;;18.60;97.10;;;;;;5032959;28;20203;-69
2022/06/14 09:19:14;;;;;;;3.53;1.35;;;18.60;97.50;;;;;;5032994;28;20191;-69
2022/06/14 09:22:05;;;;;;;3.53;1.50;;;18.50;96.40;;;;;;5031940;28;20184;-69
2022/06/14 09:24:50;;;;;;;2.38;1.35;;;18.60;97.30;;;;;;5032980;28;20197;-68
2022/06/14 09:27:37;;;;;;;3.03;1.50;;;18.70;96.80;;;;;;5033176;28;20169;-71
2022/06/14 09:30:14;;;;;;;4.38;1.90;;;18.30;97.90;;;;;;5032978;28;20193;-70
2022/06/14 09:33:10;;;;;;;4.47;1.42;;;18.20;98.60;;;;;;5033473;28;20169;-68
2022/06/14 09:35:55;;;;;;;5.65;1.90;;;18.10;98.50;;;;;;5036101;28;20161;-71
2022/06/14 09:38:54;;;;;;;6.43;1.80;;;18.20;98.00;;;;;;5016879;28;20162;-69
2022/06/14 09:41:22;;;;;;;3.90;1.75;;;18.80;98.50;;;;;;5016513;28;20162;-69
2022/06/14 09:44:22;;;;;;;4.25;1.95;;;19.40;93.50;;;;;;5018028;28;20165;-71
2022/06/14 09:46:57;;;;;;;4.25;1.55;;;19.30;92.40;;;;;;5027405;28;20166;-70
2022/06/14 09:50:00;;;;;;;4.18;1.55;;;19.00;93.70;;;;;;5026584;28;20184;-70
2022/06/14 09:52:31;;;;;;;1.60;1.35;;;19.10;94.50;;;;;;5028101;28;20543;-69
2022/06/14 09:55:27;;;;;;;2.97;1.55;;;19.60;93.80;;;;;;5020610;28;20213;-71
2022/06/14 09:58:04;;;;;;;4.93;1.50;;;19.60;93.30;;;;;;5016495;28;20581;-68
2022/06/14 10:00:41;;;;;;;4.45;1.63;;;18.90;93.30;;;;;;5016714;28;20193;-71
2022/06/14 10:03:35;;;;;;;1.83;1.30;;;18.90;93.60;;;;;;5016758;28;20260;-70
2022/06/14 10:06:27;;;;;;;1.70;1.27;;;18.90;92.90;;;;;;5016290;28;20178;-68
2022/06/14 10:09:13;;;;;;;4.65;1.63;;;18.70;94.50;;;;;;5016470;28;20166;-69
2022/06/14 10:12:02;;;;;;;4.40;1.73;;;19.30;93.80;;;;;;5015860;28;20216;-70
2022/06/14 10:15:01;;;;;;;5.38;1.60;;;19.60;93.10;;;;;;5016468;28;20169;-70
2022/06/14 10:17:47;;;;;;;3.28;1.55;;;19.50;91.60;;;;;;5015357;28;20551;-68
2022/06/14 10:20:31;;;;;;;7.65;2.10;;;19.20;91.60;;;;;;5015880;28;20216;-70
2022/06/14 10:23:24;;;;;;;4.10;1.85;;;19.00;92.80;;;;;;5016201;28;20197;-67
2022/06/14 10:29:26;;;;;;;5.03;1.85;;;18.50;91.90;;;;;;5015645;28;20176;-69
2022/06/14 10:32:21;;;;;;;3.58;1.58;;;18.40;92.90;;;;;;5016092;28;20158;-67
2022/06/14 10:35:06;;;;;;;1.90;1.45;;;18.60;92.50;;;;;;5015684;28;20170;-69
2022/06/14 10:37:55;;;;;;;7.40;1.92;;;19.30;91.50;;;;;;5015703;28;20201;-68
2022/06/14 10:41:13;;;;;;;2.40;1.20;;;19.70;88.70;;;;;;5015932;28;20170;-69
2022/06/14 10:44:03;;;;;;;1.13;1.02;;;20.00;84.50;;;;;;4998568;28;20202;-68
2022/06/14 10:46:39;;;;;;;3.47;1.58;;;20.20;86.70;;;;;;5015236;28;20268;-68
2022/06/14 10:49:38;;;;;;;2.83;1.40;;;19.90;85.00;;;;;;5022887;28;20164;-68
2022/06/14 10:52:41;;;;;;;8.60;1.65;;;19.70;86.30;;;;;;5024281;28;20225;-70
2022/06/14 10:55:52;;;;;;;1.92;1.33;;;19.40;88.80;;;;;;5030343;28;20497;-68
2022/06/14 10:58:23;;;;;;;1.65;1.10;;;20.00;86.90;;;;;;5033816;28;20197;-67
2022/06/14 11:01:04;;;;;;;4.88;1.95;;;20.40;78.30;;;;;;5035048;28;20210;-69
2022/06/14 11:03:39;;;;;;;1.10;1.05;;;20.10;75.20;;;;;;5035944;28;20173;-69
2022/06/14 11:06:45;;;;;;;2.50;1.55;;;20.50;75.80;;;;;;5038912;28;20172;-68
2022/06/14 11:09:24;;;;;;;6.10;1.40;;;20.40;77.10;;;;;;5037954;28;20549;-67
2022/06/14 11:12:27;;;;;;;4.28;1.70;;;19.90;80.50;;;;;;5037887;28;20231;-68
2022/06/14 11:15:24;;;;;;;4.22;1.42;;;19.50;80.00;;;;;;5037047;28;20169;-69
2022/06/14 11:18:21;;;;;;;2.25;1.33;;;19.90;75.90;;;;;;5036077;28;20200;-67
2022/06/14 11:21:09;;;;;;;4.13;1.50;;;20.30;76.80;;;;;;5035162;28;20203;-69
2022/06/14 11:23:53;;;;;;;5.05;1.20;;;20.40;74.30;;;;;;5034928;28;20157;-69
2022/06/14 11:26:21;;;;;;;2.78;1.38;;;20.40;74.80;;;;;;5034584;28;20161;-68
2022/06/14 11:29:01;;;;;;;2.13;1.45;;;20.20;76.90;;;;;;5034387;28;20169;-68
2022/06/14 11:31:58;;;;;;;3.95;1.45;;;20.20;76.90;;;;;;5034639;28;20161;-70
2022/06/14 11:34:59;;;;;;;9.10;2.10;;;20.30;75.70;;;;;;5034561;28;20180;-69
2022/06/14 11:37:37;;;;;;;3.03;1.42;;;20.20;77.80;;;;;;5033913;28;20699;-69
2022/06/14 11:40:16;;;;;;;3.78;1.50;;;19.80;76.90;;;;;;5034007;28;20501;-69
2022/06/14 11:43:15;;;;;;;3.30;1.48;;;20.20;74.30;;;;;;5034270;28;20204;-68
2022/06/14 11:45:53;;;;;;;5.65;1.30;;;20.70;72.20;;;;;;5034239;28;20236;-69
2022/06/14 11:48:36;;;;;;;3.30;1.45;;;21.10;73.50;;;;;;5037488;28;20286;-70
2022/06/14 11:51:39;;;;;;;3.35;1.30;;;21.20;73.00;;;;;;5045698;28;20153;-69
2022/06/14 11:54:08;;;;;;;2.55;1.70;;;21.20;71.30;;;;;;5045975;28;20169;-73
2022/06/14 11:56:53;;;;;;;9.77;5.47;;;22.00;84.50;;;;;;5044818;28;20201;-68
2022/06/14 11:59:35;;;;;;;2.35;1.60;;;22.00;70.00;;;;;;5034016;28;20240;-70
2022/06/14 12:02:26;;;;;;;2.38;1.27;;;21.00;68.70;;;;;;5034261;28;20195;-68
2022/06/14 12:05:22;;;;;;;5.45;1.25;;;20.80;69.70;;;;;;5033396;28;20640;-70
2022/06/14 12:08:46;;;;;;;3.67;1.80;;;20.70;71.20;;;;;;5033538;28;20566;-69
2022/06/14 12:11:24;;;;;;;2.78;1.80;;;21.00;72.80;;;;;;4991716;28;20193;-69
2022/06/14 12:13:59;;;;;;;5.68;1.58;;;21.20;72.70;;;;;;4992065;28;20177;-68
2022/06/14 12:16:37;;;;;;;1.77;1.40;;;21.30;73.30;;;;;;4992036;28;20622;-69
2022/06/14 12:19:25;;;;;;;2.35;1.48;;;21.40;70.40;;;;;;4992134;28;20312;-69
2022/06/14 12:22:37;;;;;;;2.13;1.50;;;21.60;69.40;;;;;;4991865;28;20186;-69
2022/06/14 12:28:24;;;;;;;1.95;1.48;;;21.60;64.60;;;;;;4991614;28;20249;-71
2022/06/14 12:30:52;;;;;;;7.18;1.92;;;21.90;64.20;;;;;;4990670;28;20198;-69
2022/06/14 12:33:29;;;;;;;5.00;1.65;;;22.20;65.70;;;;;;4991634;28;20166;-70
2022/06/14 12:36:32;;;;;;;2.70;1.42;;;22.10;64.20;;;;;;4991273;28;20243;-70
2022/06/14 12:39:04;;;;;;;2.58;1.60;;;22.00;63.90;;;;;;4991907;28;20166;-70
2022/06/14 12:41:36;;;;;;;2.58;1.30;;;21.90;67.20;;;;;;5004390;28;20192;-71
2022/06/14 12:44:12;;;;;;;4.07;1.40;;;22.40;65.30;;;;;;5033405;28;20187;-69
2022/06/14 12:46:43;;;;;;;2.55;1.20;;;22.40;64.90;;;;;;5033085;28;20173;-69
2022/06/14 12:49:26;;;;;;;1.85;1.27;;;22.30;62.20;;;;;;5033123;28;20183;-68
2022/06/14 12:51:59;;;;;;;1.58;1.20;;;22.30;62.50;;;;;;5032085;28;20172;-70
2022/06/14 12:54:51;;;;;;;4.57;1.40;;;22.40;62.30;;;;;;5033264;28;20591;-69
2022/06/14 12:57:22;;;;;;;5.15;1.15;;;22.00;62.00;;;;;;5032316;28;20263;-69
2022/06/14 13:00:02;;;;;;;3.67;1.20;;;22.40;60.40;;;;;;5033018;28;20188;-68
2022/06/14 13:02:40;;;;;;;6.45;1.40;;;22.10;60.80;;;;;;5033231;28;20276;-69
2022/06/14 13:05:16;;;;;;;3.40;1.17;;;21.70;61.20;;;;;;5033070;28;20227;-68
2022/06/14 13:08:00;;;;;;;1.90;1.38;;;21.80;61.60;;;;;;5033195;28;20610;-68
2022/06/14 13:10:41;;;;;;;3.08;1.50;;;21.50;62.90;;;;;;5035812;28;20271;-70
2022/06/14 13:13:18;;;;;;;2.17;1.25;;;21.70;63.10;;;;;;5037039;28;20169;-69
2022/06/14 13:15:47;;;;;;;4.40;1.38;;;22.10;64.10;;;;;;5036645;28;20172;-71
2022/06/14 13:18:24;;;;;;;7.82;1.70;;;22.30;62.50;;;;;;5036763;28;20173;-68
2022/06/14 13:21:10;;;;;;;2.53;1.50;;;22.10;61.40;;;;;;5036523;28;20168;-67
2022/06/14 13:23:45;;;;;;;5.07;1.45;;;22.10;63.40;;;;;;5036416;28;20172;-70
2022/06/14 13:26:47;;;;;;;3.42;1.27;;;22.60;62.50;;;;;;5036840;28;20164;-68
2022/06/14 13:29:26;;;;;;;2.88;1.48;;;22.00;61.80;;;;;;5036607;28;20165;-68
2022/06/14 13:32:13;;;;;;;1.80;1.20;;;22.20;63.30;;;;;;5036203;28;20161;-70
2022/06/14 13:35:18;;;;;;;2.05;1.40;;;22.30;63.40;;;;;;5036627;28;20157;-68
2022/06/14 13:37:52;;;;;;;2.08;1.20;;;22.70;62.80;;;;;;5028425;28;20656;-69
2022/06/14 13:40:28;;;;;;;2.53;1.33;;;22.70;59.10;;;;;;5035322;28;20187;-69
2022/06/14 13:43:10;;;;;;;3.08;1.20;;;22.70;58.00;;;;;;5036700;28;20176;-67
2022/06/14 13:45:45;;;;;;;1.77;1.17;;;22.50;57.30;;;;;;5039472;28;20236;-69
2022/06/14 13:48:19;;;;;;;2.97;1.45;;;21.90;58.40;;;;;;5043659;28;20165;-70
2022/06/14 13:50:59;;;;;;;4.38;1.40;;;22.00;60.20;;;;;;5042844;28;20230;-70
2022/06/14 13:54:03;;;;;;;2.10;1.20;;;22.10;59.80;;;;;;5043388;28;20157;-69
2022/06/14 13:56:58;;;;;;;2.88;1.35;;;22.40;59.30;;;;;;5033827;28;20307;-70
2022/06/14 13:59:30;;;;;;;2.75;1.38;;;22.90;59.50;;;;;;5036368;28;20176;-71
2022/06/14 14:02:37;;;;;;;3.95;1.35;;;22.80;58.20;;;;;;5036204;28;20248;-69
2022/06/14 14:05:15;;;;;;;2.63;1.48;;;22.80;58.40;;;;;;5036040;28;20232;-69
2022/06/14 14:07:49;;;;;;;3.35;1.30;;;22.70;58.80;;;;;;5035552;28;20173;-70
2022/06/14 14:10:38;;;;;;;3.35;1.33;;;22.80;59.10;;;;;;5035969;28;20160;-68